Shirase — JSNJ — position and weather

sailwx.info

Track history (hours):
 
Tides and Currents Weather Stations Pressure Air Temp Water Temp Dewpoint Dewpoint Depression Visibility Wind Speed Wind Dir Waves Ship Positions

Shirase

Last reported at 2017-Nov-12 06:33 UTC. Time now 2017-Nov-22 16:41 UTC.
Position N 34°44' E 139°39'.
Warning: this ship's position is 10 days out of date.

Length 138 m.

Type: Military. MMSI: 431999533.

Date/timePositionNaut miles runAvg speedWind from/ knotsBaromVisibWave heightAir tempDewpointWater temp
2017-Nov-12 06:33N 34°44' E 139°39'614.6
2017-Nov-12 06:10N 34°49' E 139°39'214.8
2017-Nov-12 06:00N 34°52' E 139°39'714.3
2017-Nov-12 05:30N 34°59' E 139°40'714.1
2017-Nov-12 05:00N 35°05' E 139°43'713.8
2017-Nov-12 04:30N 35°12' E 139°46'611.4
2017-Nov-12 04:00N 35°17' E 139°45'611.7
2017-Nov-12 03:30N 35°23' E 139°42'713.5
2017-Nov-12 03:01N 35°27' E 139°48'612.1
2017-Nov-12 02:30N 35°33' E 139°50'510.4
2017-Nov-12 02:00N 35°37' E 139°46'2 3.6
2017-Nov-12 01:29N 35°39' E 139°46'0 0.0
2017-Nov-12 00:59N 35°39' E 139°46'0 0.0
2017-Nov-12 00:29N 35°39' E 139°46'0 0.1
2017-Nov-11 23:59N 35°39' E 139°46'0 0.1
2017-Nov-11 23:29N 35°39' E 139°46'0 0.0
2017-Nov-11 22:59N 35°39' E 139°46'0 0.0
2017-Nov-11 22:26N 35°39' E 139°46'0 0.0
2017-Nov-11 21:56N 35°39' E 139°46'0 0.0
2017-Nov-11 07:51N 35°39' E 139°46'0 0.2
2017-Nov-11 07:29N 35°39' E 139°46'1 1.7
2017-Nov-11 06:59N 35°38' E 139°46'4 7.4
2017-Nov-11 06:30N 35°35' E 139°48'4 7.1
2017-Nov-11 06:00N 35°33' E 139°51'3 6.5
2017-Nov-11 05:30N 35°30' E 139°53'714.3
2017-Nov-11 05:00N 35°25' E 139°47'611.9
2017-Nov-11 04:31N 35°20' E 139°44'2 4.8
2017-Nov-11 04:00N 35°19' E 139°41'0 0.1
2017-Nov-11 03:30N 35°19' E 139°41'0 0.0
2017-Nov-11 03:00N 35°19' E 139°41'0 0.0
2017-Nov-11 02:30N 35°19' E 139°41'0 0.0
2017-Nov-11 02:00N 35°19' E 139°41'0 0.2
2017-Nov-11 01:30N 35°19' E 139°41'0 0.0
2017-Nov-11 01:00N 35°19' E 139°41'0 0.0
2017-Nov-11 00:30N 35°19' E 139°41'0 0.1
2017-Nov-10 23:58N 35°19' E 139°41'0 0.1
2017-Nov-10 23:30N 35°19' E 139°41'0 0.0
2017-Nov-10 22:59N 35°19' E 139°41'0 0.1
2017-Nov-10 22:29N 35°19' E 139°41'0 0.2
2017-Nov-10 22:00N 35°19' E 139°41'0 0.1
2017-Nov-10 21:30N 35°19' E 139°41'0 0.0
2017-Nov-10 20:55N 35°19' E 139°41'0 0.1
2017-Nov-10 20:31N 35°19' E 139°41'0 0.0
2017-Nov-10 20:00N 35°19' E 139°41'0 0.1
2017-Nov-10 19:30N 35°19' E 139°41'0 0.0
2017-Nov-10 18:58N 35°19' E 139°41'0 0.2
2017-Nov-10 18:30N 35°19' E 139°41'0 0.0
2017-Nov-10 17:58N 35°19' E 139°41'0 0.1
2017-Nov-10 17:30N 35°19' E 139°41'0 0.0
2017-Nov-10 16:59N 35°19' E 139°41'0 0.0
2017-Nov-10 16:29N 35°19' E 139°41'0 0.0
2017-Nov-10 15:58N 35°19' E 139°41'0 0.0
2017-Nov-10 15:25N 35°19' E 139°41'0 0.1
2017-Nov-10 14:55N 35°19' E 139°41'0 0.0
2017-Nov-10 14:25N 35°19' E 139°41'0 0.0
2017-Nov-10 13:58N 35°19' E 139°41'0 0.0
2017-Nov-10 13:13N 35°19' E 139°41'0 0.0
2017-Nov-10 12:55N 35°19' E 139°41'0 0.1
2017-Nov-10 12:25N 35°19' E 139°41'0 0.0
2017-Nov-10 11:58N 35°19' E 139°41'0 0.1
2017-Nov-10 11:28N 35°19' E 139°41'0 0.1
2017-Nov-10 10:58N 35°19' E 139°41'0 0.1
2017-Nov-10 10:25N 35°19' E 139°41'0 0.1
2017-Nov-10 09:58N 35°19' E 139°41'0 0.0
2017-Nov-10 09:28N 35°19' E 139°41'0 0.1
2017-Nov-10 08:58N 35°19' E 139°41'0 0.1
2017-Nov-10 08:25N 35°19' E 139°41'0 0.0
2017-Nov-10 07:55N 35°19' E 139°41'0 0.1
2017-Nov-10 07:28N 35°19' E 139°41'0 0.0
2017-Nov-10 06:55N 35°19' E 139°41'0 0.0
2017-Nov-10 06:28N 35°19' E 139°41'0 0.0
2017-Nov-10 05:58N 35°19' E 139°41'0 0.0
2017-Nov-10 05:30N 35°19' E 139°41'0 0.0
2017-Nov-10 05:00N 35°19' E 139°41'0 0.0
2017-Nov-10 04:30N 35°19' E 139°41'0 0.0
2017-Nov-10 04:00N 35°19' E 139°41'4 8.6
2017-Nov-10 03:31N 35°23' E 139°42'713.8
2017-Nov-10 03:00N 35°28' E 139°48'611.8
2017-Nov-10 02:30N 35°33' E 139°50'3 6.9
2017-Nov-10 02:00N 35°35' E 139°47'0 0.1
2017-Nov-10 01:30N 35°35' E 139°46'0 0.0
2017-Nov-10 00:59N 35°35' E 139°46'0 0.0
2017-Nov-10 00:29N 35°35' E 139°46'0 0.0
2017-Nov-09 23:47N 35°35' E 139°46'0 0.0
2017-Nov-09 23:29N 35°35' E 139°46'  
Track history (hours):
 
Tides and Currents Weather Stations Pressure Air Temp Water Temp Dewpoint Dewpoint Depression Visibility Wind Speed Wind Dir Waves Ship Positions

Shirase

Last reported at 2017-Nov-12 06:33 UTC. Time now 2017-Nov-22 16:41 UTC.
Position N 34°44' E 139°39'.
Warning: this ship's position is 10 days out of date.

Length 138 m.

Type: Military. MMSI: 431999533.

Date/timePositionNaut miles runAvg speedWind from/ knotsBaromVisibWave heightAir tempDewpointWater temp
2017-Nov-12 06:33N 34°44' E 139°39'614.6
2017-Nov-12 06:10N 34°49' E 139°39'214.8
2017-Nov-12 06:00N 34°52' E 139°39'714.3
2017-Nov-12 05:30N 34°59' E 139°40'714.1
2017-Nov-12 05:00N 35°05' E 139°43'713.8
2017-Nov-12 04:30N 35°12' E 139°46'611.4
2017-Nov-12 04:00N 35°17' E 139°45'611.7
2017-Nov-12 03:30N 35°23' E 139°42'713.5
2017-Nov-12 03:01N 35°27' E 139°48'612.1
2017-Nov-12 02:30N 35°33' E 139°50'510.4
2017-Nov-12 02:00N 35°37' E 139°46'2 3.6
2017-Nov-12 01:29N 35°39' E 139°46'0 0.0
2017-Nov-12 00:59N 35°39' E 139°46'0 0.0
2017-Nov-12 00:29N 35°39' E 139°46'0 0.1
2017-Nov-11 23:59N 35°39' E 139°46'0 0.1
2017-Nov-11 23:29N 35°39' E 139°46'0 0.0
2017-Nov-11 22:59N 35°39' E 139°46'0 0.0
2017-Nov-11 22:26N 35°39' E 139°46'0 0.0
2017-Nov-11 21:56N 35°39' E 139°46'0 0.0
2017-Nov-11 07:51N 35°39' E 139°46'0 0.2
2017-Nov-11 07:29N 35°39' E 139°46'1 1.7
2017-Nov-11 06:59N 35°38' E 139°46'4 7.4
2017-Nov-11 06:30N 35°35' E 139°48'4 7.1
2017-Nov-11 06:00N 35°33' E 139°51'3 6.5
2017-Nov-11 05:30N 35°30' E 139°53'714.3
2017-Nov-11 05:00N 35°25' E 139°47'611.9
2017-Nov-11 04:31N 35°20' E 139°44'2 4.8
2017-Nov-11 04:00N 35°19' E 139°41'0 0.1
2017-Nov-11 03:30N 35°19' E 139°41'0 0.0
2017-Nov-11 03:00N 35°19' E 139°41'0 0.0
2017-Nov-11 02:30N 35°19' E 139°41'0 0.0
2017-Nov-11 02:00N 35°19' E 139°41'0 0.2
2017-Nov-11 01:30N 35°19' E 139°41'0 0.0
2017-Nov-11 01:00N 35°19' E 139°41'0 0.0
2017-Nov-11 00:30N 35°19' E 139°41'0 0.1
2017-Nov-10 23:58N 35°19' E 139°41'0 0.1
2017-Nov-10 23:30N 35°19' E 139°41'0 0.0
2017-Nov-10 22:59N 35°19' E 139°41'0 0.1
2017-Nov-10 22:29N 35°19' E 139°41'0 0.2
2017-Nov-10 22:00N 35°19' E 139°41'0 0.1
2017-Nov-10 21:30N 35°19' E 139°41'0 0.0
2017-Nov-10 20:55N 35°19' E 139°41'0 0.1
2017-Nov-10 20:31N 35°19' E 139°41'0 0.0
2017-Nov-10 20:00N 35°19' E 139°41'0 0.1
2017-Nov-10 19:30N 35°19' E 139°41'0 0.0
2017-Nov-10 18:58N 35°19' E 139°41'0 0.2
2017-Nov-10 18:30N 35°19' E 139°41'0 0.0
2017-Nov-10 17:58N 35°19' E 139°41'0 0.1
2017-Nov-10 17:30N 35°19' E 139°41'0 0.0
2017-Nov-10 16:59N 35°19' E 139°41'0 0.0
2017-Nov-10 16:29N 35°19' E 139°41'0 0.0
2017-Nov-10 15:58N 35°19' E 139°41'0 0.0
2017-Nov-10 15:25N 35°19' E 139°41'0 0.1
2017-Nov-10 14:55N 35°19' E 139°41'0 0.0
2017-Nov-10 14:25N 35°19' E 139°41'0 0.0
2017-Nov-10 13:58N 35°19' E 139°41'0 0.0
2017-Nov-10 13:13N 35°19' E 139°41'0 0.0
2017-Nov-10 12:55N 35°19' E 139°41'0 0.1
2017-Nov-10 12:25N 35°19' E 139°41'0 0.0
2017-Nov-10 11:58N 35°19' E 139°41'0 0.1
2017-Nov-10 11:28N 35°19' E 139°41'0 0.1
2017-Nov-10 10:58N 35°19' E 139°41'0 0.1
2017-Nov-10 10:25N 35°19' E 139°41'0 0.1
2017-Nov-10 09:58N 35°19' E 139°41'0 0.0
2017-Nov-10 09:28N 35°19' E 139°41'0 0.1
2017-Nov-10 08:58N 35°19' E 139°41'0 0.1
2017-Nov-10 08:25N 35°19' E 139°41'0 0.0
2017-Nov-10 07:55N 35°19' E 139°41'0 0.1
2017-Nov-10 07:28N 35°19' E 139°41'0 0.0
2017-Nov-10 06:55N 35°19' E 139°41'0 0.0
2017-Nov-10 06:28N 35°19' E 139°41'0 0.0
2017-Nov-10 05:58N 35°19' E 139°41'0 0.0
2017-Nov-10 05:30N 35°19' E 139°41'0 0.0
2017-Nov-10 05:00N 35°19' E 139°41'0 0.0
2017-Nov-10 04:30N 35°19' E 139°41'0 0.0
2017-Nov-10 04:00N 35°19' E 139°41'4 8.6
2017-Nov-10 03:31N 35°23' E 139°42'713.8
2017-Nov-10 03:00N 35°28' E 139°48'611.8
2017-Nov-10 02:30N 35°33' E 139°50'3 6.9
2017-Nov-10 02:00N 35°35' E 139°47'0 0.1
2017-Nov-10 01:30N 35°35' E 139°46'0 0.0
2017-Nov-10 00:59N 35°35' E 139°46'0 0.0
2017-Nov-10 00:29N 35°35' E 139°46'0 0.0
2017-Nov-09 23:47N 35°35' E 139°46'0 0.0
2017-Nov-09 23:29N 35°35' E 139°46'  

Dump ship's entire track history